Time;durP1;ratioP1;P1;durP2;ratioP2;P2;SDS_P1;SDS_P2;PMS_P1;PMS_P2;Temp;Humidity;BMP_temperature;BMP_pressure;BME280_temperature;BME280_humidity;BME280_pressure;Samples;Min_cycle;Max_cycle;Signal;HPM_P1;HPM_P2
2022/12/15 00:39:23;;;;;;;45.90;26.37;;;4.70;80.00;;;;;;4973997;28;19952;-19
2022/12/15 00:41:49;;;;;;;52.75;27.70;;;4.60;80.00;;;;;;4974249;28;20286;-16
2022/12/15 00:44:15;;;;;;;52.88;27.52;;;4.60;80.10;;;;;;4973986;28;20463;-15
2022/12/15 00:46:53;;;;;;;56.05;28.70;;;4.50;80.10;;;;;;4974117;28;20036;-13
2022/12/15 01:22:22;;;;;;;47.20;22.75;;;3.90;80.80;;;;;;4976215;28;19913;-16
2022/12/15 01:24:48;;;;;;;37.53;20.77;;;3.90;80.90;;;;;;4977205;28;20030;-16
2022/12/15 01:27:13;;;;;;;26.13;15.27;;;3.90;80.90;;;;;;4976032;28;20027;-14
2022/12/15 01:29:39;;;;;;;40.47;22.02;;;3.90;80.90;;;;;;4977250;28;20445;-13
2022/12/15 01:32:05;;;;;;;36.90;21.30;;;3.90;81.00;;;;;;4977363;28;20027;-15
2022/12/15 01:34:31;;;;;;;34.25;18.85;;;3.90;81.00;;;;;;4977497;28;20027;-16
2022/12/15 01:36:56;;;;;;;44.13;23.15;;;3.80;80.90;;;;;;4977299;28;20031;-17
2022/12/15 01:39:22;;;;;;;49.30;27.05;;;3.80;80.90;;;;;;4977411;28;20050;-15
2022/12/15 01:41:49;;;;;;;37.60;21.48;;;3.70;80.80;;;;;;4976158;28;20483;-17
2022/12/15 01:44:23;;;;;;;41.90;22.83;;;3.60;80.70;;;;;;4977022;28;20501;-17
2022/12/15 01:46:52;;;;;;;38.05;20.20;;;3.50;80.70;;;;;;4976690;28;20030;-14
2022/12/15 01:49:26;;;;;;;33.13;18.63;;;3.40;80.80;;;;;;4976910;28;20106;-15
2022/12/15 01:51:57;;;;;;;41.85;22.25;;;3.30;81.00;;;;;;4977303;28;20031;-15
2022/12/15 01:54:37;;;;;;;28.85;16.67;;;3.20;81.10;;;;;;4977161;28;20039;-16
2022/12/15 01:57:12;;;;;;;29.83;17.35;;;3.10;81.10;;;;;;4976669;28;20023;-16
2022/12/15 01:59:45;;;;;;;31.25;17.55;;;3.00;81.20;;;;;;4977154;28;20368;-13
2022/12/15 02:02:13;;;;;;;36.17;20.45;;;2.90;81.30;;;;;;4977173;28;20022;-15
2022/12/15 02:04:40;;;;;;;30.67;18.23;;;2.90;81.40;;;;;;4976852;28;20487;-17
2022/12/15 02:07:11;;;;;;;22.90;13.85;;;2.80;81.20;;;;;;4976216;28;20138;-15
2022/12/15 02:09:37;;;;;;;32.33;17.70;;;2.70;81.40;;;;;;4976890;28;20479;-16
2022/12/15 02:12:21;;;;;;;37.55;21.45;;;2.70;81.40;;;;;;4976586;28;20487;-15
2022/12/15 02:14:59;;;;;;;;;;;2.60;81.60;;;;;;4977135;28;20070;-16
2022/12/15 02:17:49;;;;;;;35.55;19.42;;;2.60;81.90;;;;;;4976493;28;19918;-15
2022/12/15 02:20:15;;;;;;;35.30;20.52;;;2.50;81.70;;;;;;4976890;28;20483;-18
2022/12/15 02:22:44;;;;;;;32.35;18.25;;;2.40;81.50;;;;;;4976709;28;20039;-16
2022/12/15 02:25:21;;;;;;;27.83;15.35;;;2.30;81.40;;;;;;4976141;28;20023;-16
2022/12/15 02:28:19;;;;;;;35.38;19.85;;;2.20;81.50;;;;;;4976624;28;20478;-17
2022/12/15 02:33:51;;;;;;;36.95;20.38;;;2.00;81.40;;;;;;4976490;28;20053;-16
2022/12/15 02:36:30;;;;;;;25.10;14.13;;;1.90;81.50;;;;;;4976148;28;20075;-18
2022/12/15 02:38:56;;;;;;;37.67;22.55;;;1.90;81.70;;;;;;4976262;28;20030;-18
2022/12/15 02:41:50;;;;;;;42.13;23.40;;;1.80;81.80;;;;;;4976348;28;20088;-17
2022/12/15 02:44:26;;;;;;;33.78;17.67;;;1.80;81.80;;;;;;4975706;28;20074;-15
2022/12/15 02:47:14;;;;;;;37.17;19.65;;;1.70;81.80;;;;;;4975633;28;20081;-15
2022/12/15 02:49:57;;;;;;;41.65;22.50;;;1.60;81.80;;;;;;4976100;28;20043;-12
2022/12/15 02:52:35;;;;;;;38.38;21.80;;;1.50;81.90;;;;;;4975867;28;20475;-15
2022/12/15 02:55:31;;;;;;;40.88;21.25;;;1.50;81.90;;;;;;4975988;28;20074;-17
2022/12/15 02:58:12;;;;;;;41.10;21.75;;;1.40;81.80;;;;;;4975907;28;20027;-15
2022/12/15 03:00:43;;;;;;;33.00;18.33;;;1.30;81.80;;;;;;4976037;28;20030;-17
2022/12/15 03:03:10;;;;;;;26.55;15.60;;;1.20;81.90;;;;;;4975577;28;20052;-17
2022/12/15 03:05:36;;;;;;;32.33;17.52;;;1.10;82.20;;;;;;4975848;28;20053;-14
2022/12/15 03:08:02;;;;;;;27.58;17.27;;;1.20;82.40;;;;;;4975323;28;20503;-15
2022/12/15 03:10:28;;;;;;;26.48;15.35;;;1.20;82.40;;;;;;4975409;28;20042;-15
2022/12/15 03:12:54;;;;;;;41.10;21.92;;;1.20;82.40;;;;;;4974027;28;20027;-17
2022/12/15 03:15:20;;;;;;;37.40;21.25;;;1.20;82.40;;;;;;4975581;28;20019;-17
2022/12/15 03:17:46;;;;;;;24.45;13.95;;;1.10;82.30;;;;;;4975745;28;20033;-17
2022/12/15 03:20:12;;;;;;;31.40;17.35;;;1.20;82.30;;;;;;4974031;28;20031;-18
2022/12/15 03:22:39;;;;;;;34.55;20.55;;;1.20;82.20;;;;;;4975552;28;20035;-16
2022/12/15 03:25:05;;;;;;;33.15;19.00;;;1.10;82.20;;;;;;4975074;28;20031;-17
2022/12/15 03:27:31;;;;;;;49.75;26.40;;;1.10;82.20;;;;;;4973962;28;20030;-18
2022/12/15 03:29:57;;;;;;;42.25;25.05;;;1.10;82.20;;;;;;4975115;28;20041;-16
2022/12/15 03:32:23;;;;;;;37.65;21.10;;;1.00;82.10;;;;;;4975224;28;20023;-16
2022/12/15 03:34:49;;;;;;;31.58;19.27;;;0.90;82.00;;;;;;4975083;28;20034;-17
2022/12/15 03:37:15;;;;;;;38.00;22.52;;;0.90;82.00;;;;;;4973831;28;20026;-16
2022/12/15 03:39:41;;;;;;;34.20;19.45;;;0.80;82.30;;;;;;4975432;28;20102;-17
2022/12/15 03:42:06;;;;;;;35.35;18.98;;;0.80;82.40;;;;;;4975335;28;20030;-17
2022/12/15 03:44:32;;;;;;;29.25;17.63;;;0.80;82.40;;;;;;4974493;28;20042;-18
2022/12/15 03:46:58;;;;;;;35.60;19.85;;;0.80;82.60;;;;;;4974402;28;20078;-17
2022/12/15 03:49:24;;;;;;;41.30;22.45;;;0.80;82.60;;;;;;4975096;28;20086;-18
2022/12/15 03:51:51;;;;;;;40.95;23.05;;;0.80;82.80;;;;;;4974707;28;20030;-18
2022/12/15 03:54:16;;;;;;;47.00;25.65;;;0.80;82.80;;;;;;4974917;28;20031;-15
2022/12/15 03:56:43;;;;;;;45.45;23.58;;;0.80;82.70;;;;;;4974940;28;20103;-17
2022/12/15 03:59:09;;;;;;;45.58;25.30;;;0.90;82.70;;;;;;4974543;28;20380;-16
2022/12/15 04:01:35;;;;;;;45.78;25.65;;;1.00;82.70;;;;;;4974765;28;20082;-17
2022/12/15 04:04:03;;;;;;;43.80;23.15;;;1.00;82.70;;;;;;4973691;28;20031;-15
2022/12/15 04:06:29;;;;;;;42.60;25.05;;;1.10;82.80;;;;;;4974413;28;20093;-16
2022/12/15 04:08:56;;;;;;;42.58;24.80;;;1.10;82.80;;;;;;4974260;28;20566;-17
2022/12/15 04:11:21;;;;;;;43.17;24.38;;;1.20;82.80;;;;;;4974373;28;20030;-17
2022/12/15 04:13:48;;;;;;;37.33;21.40;;;1.30;82.70;;;;;;4974631;28;20106;-18
2022/12/15 04:16:14;;;;;;;49.42;26.50;;;1.40;82.80;;;;;;4974291;28;20023;-16
2022/12/15 04:18:39;;;;;;;48.53;26.42;;;1.40;82.80;;;;;;4974303;28;20031;-17
2022/12/15 04:21:05;;;;;;;44.70;24.45;;;1.40;82.70;;;;;;4974379;28;20029;-18
2022/12/15 04:23:31;;;;;;;46.75;26.70;;;1.50;82.90;;;;;;4974550;28;20031;-18
2022/12/15 05:32:04;;;;;;;31.08;18.08;;;1.90;82.70;;;;;;4977860;28;20400;-18
2022/12/15 05:34:33;;;;;;;38.20;20.95;;;1.90;82.90;;;;;;4977573;28;20069;-17
2022/12/15 05:37:01;;;;;;;35.83;17.70;;;1.90;82.80;;;;;;4977392;28;20045;-17
2022/12/15 05:39:27;;;;;;;32.08;17.45;;;2.00;82.50;;;;;;4977562;28;20037;-17
2022/12/15 05:41:55;;;;;;;32.15;18.50;;;2.00;82.40;;;;;;4977407;28;20372;-17
2022/12/15 05:44:22;;;;;;;33.28;18.48;;;2.00;82.30;;;;;;4977297;28;20118;-16
2022/12/15 05:46:47;;;;;;;32.90;17.80;;;2.00;82.00;;;;;;4976848;28;20081;-17
2022/12/15 05:49:15;;;;;;;30.40;17.42;;;2.00;82.10;;;;;;4977104;28;20046;-16
2022/12/15 05:51:43;;;;;;;28.55;17.10;;;2.10;82.10;;;;;;4976998;28;20505;-17
2022/12/15 05:54:11;;;;;;;28.73;15.30;;;2.10;82.10;;;;;;4976873;28;20034;-17
2022/12/15 05:56:37;;;;;;;24.73;14.73;;;2.00;82.10;;;;;;4977140;28;20026;-18
2022/12/15 05:59:04;;;;;;;28.55;16.35;;;2.00;82.00;;;;;;4976900;28;20073;-18
2022/12/15 06:01:30;;;;;;;26.10;14.73;;;2.10;82.10;;;;;;4976747;28;20031;-18
2022/12/15 06:03:57;;;;;;;27.40;14.35;;;2.10;82.10;;;;;;4977248;28;20027;-16
2022/12/15 06:06:24;;;;;;;24.15;13.90;;;2.20;82.00;;;;;;4976863;28;20066;-17
2022/12/15 06:08:50;;;;;;;26.40;14.32;;;2.20;82.00;;;;;;4974710;28;20081;-16
2022/12/15 06:11:17;;;;;;;30.17;16.80;;;2.30;82.00;;;;;;4976922;28;20027;-13
2022/12/15 06:13:43;;;;;;;30.17;16.52;;;2.30;81.70;;;;;;4976569;28;20027;-17
2022/12/15 06:16:18;;;;;;;35.28;17.23;;;2.40;81.90;;;;;;4976608;28;20026;-13
2022/12/15 06:18:49;;;;;;;32.50;16.85;;;2.40;81.80;;;;;;4976864;28;20418;-17
2022/12/15 06:21:18;;;;;;;37.50;19.95;;;2.40;81.80;;;;;;4975240;28;20109;-17
2022/12/15 06:23:45;;;;;;;40.67;19.70;;;2.40;81.80;;;;;;4976403;28;20126;-18
2022/12/15 06:26:14;;;;;;;38.42;20.48;;;2.50;81.80;;;;;;4976355;28;20398;-16
2022/12/15 06:28:40;;;;;;;71.07;34.03;;;2.50;81.80;;;;;;4976299;28;20034;-16
2022/12/15 06:31:08;;;;;;;40.75;19.52;;;2.50;81.90;;;;;;4976736;28;20041;-17
2022/12/15 06:33:35;;;;;;;30.50;17.02;;;2.60;81.90;;;;;;4976169;28;20027;-13
2022/12/15 06:36:09;;;;;;;29.27;17.02;;;2.50;81.70;;;;;;4976233;28;20053;-15
2022/12/15 06:38:36;;;;;;;30.48;16.67;;;2.60;81.60;;;;;;4976267;28;20030;-16
2022/12/15 06:41:04;;;;;;;31.25;16.35;;;2.60;81.60;;;;;;4975823;28;20031;-18
2022/12/15 06:43:32;;;;;;;33.67;18.02;;;2.60;81.60;;;;;;4976055;28;20109;-16
2022/12/15 06:45:59;;;;;;;30.27;17.95;;;2.60;81.50;;;;;;4974758;28;20467;-18
2022/12/15 06:48:25;;;;;;;30.60;17.30;;;2.60;81.50;;;;;;4976254;28;20031;-17
2022/12/15 06:50:51;;;;;;;31.33;17.17;;;2.60;81.50;;;;;;4975753;28;20026;-17
2022/12/15 06:53:20;;;;;;;28.70;17.38;;;2.60;81.50;;;;;;4976077;28;20030;-17
2022/12/15 06:55:47;;;;;;;28.80;17.08;;;2.60;81.40;;;;;;4976070;28;20023;-16
2022/12/15 06:58:14;;;;;;;29.58;17.60;;;2.60;81.30;;;;;;4976101;28;20031;-16
2022/12/15 07:00:45;;;;;;;27.25;14.90;;;2.60;81.40;;;;;;4975928;28;20030;-16
2022/12/15 07:03:16;;;;;;;28.95;16.13;;;2.60;81.40;;;;;;4975735;28;20026;-17
2022/12/15 07:05:45;;;;;;;28.08;15.52;;;2.60;81.30;;;;;;4975583;28;20498;-17
2022/12/15 07:08:12;;;;;;;29.60;15.30;;;2.70;81.10;;;;;;4975391;28;20058;-18
2022/12/15 07:10:40;;;;;;;40.55;21.05;;;2.70;81.10;;;;;;4975699;28;20144;-16
2022/12/15 07:13:09;;;;;;;27.05;15.50;;;2.70;80.90;;;;;;4975464;28;20041;-18
2022/12/15 07:15:35;;;;;;;28.35;15.38;;;2.80;81.00;;;;;;4975778;28;20037;-18
2022/12/15 07:18:01;;;;;;;34.38;17.05;;;2.80;80.80;;;;;;4975736;28;20062;-17
2022/12/15 07:20:27;;;;;;;70.05;31.15;;;2.80;80.80;;;;;;4974477;28;20491;-17
2022/12/15 07:22:54;;;;;;;26.50;14.65;;;2.80;80.80;;;;;;4975091;28;20559;-17
2022/12/15 07:25:20;;;;;;;28.15;15.13;;;2.90;80.60;;;;;;4975422;28;20356;-16
2022/12/15 07:27:46;;;;;;;24.80;14.40;;;2.90;80.30;;;;;;4975018;28;20502;-15
2022/12/15 07:30:13;;;;;;;29.10;15.90;;;2.90;80.20;;;;;;4975477;28;20027;-16
2022/12/15 07:32:40;;;;;;;25.70;14.32;;;2.90;80.20;;;;;;4975175;28;20089;-18
2022/12/15 07:35:07;;;;;;;30.67;15.55;;;2.90;79.80;;;;;;4975151;28;20035;-18
2022/12/15 07:37:33;;;;;;;28.70;15.38;;;2.90;79.90;;;;;;4975004;28;20058;-17
2022/12/15 07:39:59;;;;;;;26.75;15.80;;;2.90;80.10;;;;;;4975367;28;20117;-17
2022/12/15 07:42:28;;;;;;;26.58;15.38;;;2.90;80.10;;;;;;4973624;28;20440;-18
2022/12/15 07:44:54;;;;;;;25.38;14.40;;;3.00;80.00;;;;;;4974566;28;20471;-17
2022/12/15 07:47:21;;;;;;;27.52;14.80;;;3.00;79.80;;;;;;4974890;28;20042;-18
2022/12/15 07:49:46;;;;;;;21.83;12.82;;;3.00;79.70;;;;;;4975298;28;20102;-15
2022/12/15 07:52:12;;;;;;;24.23;14.55;;;3.00;79.70;;;;;;4974754;28;20117;-13
2022/12/15 07:54:39;;;;;;;24.55;14.07;;;3.00;79.50;;;;;;4974785;28;20554;-17
2022/12/15 07:57:06;;;;;;;25.73;15.48;;;3.10;79.60;;;;;;4973156;28;20034;-17
2022/12/15 07:59:35;;;;;;;29.20;15.82;;;3.10;79.90;;;;;;4974554;28;20027;-16
2022/12/15 08:02:03;;;;;;;26.17;14.13;;;3.20;79.80;;;;;;4974542;28;20022;-16
2022/12/15 08:04:31;;;;;;;30.08;15.38;;;3.20;79.70;;;;;;4974781;28;20497;-16
2022/12/15 08:06:57;;;;;;;26.45;14.43;;;3.30;79.60;;;;;;4974019;28;20473;-17
2022/12/15 08:09:25;;;;;;;22.23;14.10;;;3.30;79.50;;;;;;4974316;28;20054;-17
2022/12/15 08:11:51;;;;;;;26.75;14.32;;;3.30;79.20;;;;;;4974711;28;20034;-16
2022/12/15 08:14:17;;;;;;;23.67;14.35;;;3.30;79.20;;;;;;4974327;28;20419;-17
2022/12/15 08:16:44;;;;;;;26.35;15.52;;;3.40;79.10;;;;;;4974309;28;20073;-18
2022/12/15 08:19:14;;;;;;;24.00;13.40;;;3.40;79.10;;;;;;4974468;28;20031;-16
2022/12/15 08:21:41;;;;;;;22.75;13.27;;;3.40;79.00;;;;;;4974320;28;20045;-14
2022/12/15 08:24:08;;;;;;;26.35;13.43;;;3.40;79.10;;;;;;4974159;28;20035;-16
2022/12/15 08:26:36;;;;;;;23.35;12.85;;;3.40;78.90;;;;;;4974311;28;20082;-13
2022/12/15 08:29:05;;;;;;;23.45;13.45;;;3.50;78.80;;;;;;4974038;28;20039;-15
2022/12/15 08:31:32;;;;;;;24.77;14.15;;;3.50;78.80;;;;;;4973929;28;20486;-18
2022/12/15 08:34:00;;;;;;;29.60;14.70;;;3.60;78.80;;;;;;4974260;28;20498;-18
2022/12/15 08:36:26;;;;;;;33.97;21.75;;;3.60;78.70;;;;;;4974212;28;20038;-18
2022/12/15 08:38:56;;;;;;;27.45;16.60;;;3.60;78.70;;;;;;4974033;28;20368;-17
2022/12/15 08:41:25;;;;;;;26.73;15.73;;;3.70;78.60;;;;;;4973854;28;20085;-15
2022/12/15 08:43:53;;;;;;;22.95;13.82;;;3.80;78.50;;;;;;4973918;28;20538;-17
2022/12/15 08:46:21;;;;;;;24.35;14.23;;;3.80;78.40;;;;;;4973755;28;20035;-14
2022/12/15 08:48:47;;;;;;;21.05;13.40;;;3.90;77.50;;;;;;4974163;28;20093;-16
2022/12/15 08:51:14;;;;;;;25.58;13.88;;;3.90;77.00;;;;;;4972601;28;20465;-18
2022/12/15 08:53:40;;;;;;;26.13;14.85;;;4.00;76.90;;;;;;4973849;28;20030;-16
2022/12/15 08:56:09;;;;;;;25.55;13.80;;;4.20;77.20;;;;;;4972587;28;20053;-16
2022/12/15 08:58:35;;;;;;;26.40;14.93;;;4.40;76.60;;;;;;4973888;28;20027;-16
2022/12/15 09:01:03;;;;;;;29.40;15.48;;;4.50;75.40;;;;;;4973936;28;20118;-17
2022/12/15 09:03:29;;;;;;;25.98;14.32;;;4.50;75.60;;;;;;4974124;28;20031;-16
2022/12/15 09:05:56;;;;;;;25.75;15.05;;;4.60;75.40;;;;;;4973345;28;20587;-18
2022/12/15 09:08:23;;;;;;;28.38;14.77;;;4.70;75.00;;;;;;4973903;28;20037;-14
2022/12/15 09:10:50;;;;;;;25.70;15.07;;;4.70;75.60;;;;;;4973756;28;20027;-16
2022/12/15 09:13:16;;;;;;;26.52;14.48;;;4.70;74.80;;;;;;4973658;28;20109;-18
2022/12/15 09:15:44;;;;;;;24.05;14.13;;;4.70;75.10;;;;;;4973717;28;20475;-17
2022/12/15 09:18:11;;;;;;;24.20;14.27;;;4.70;74.80;;;;;;4974190;28;20382;-16
2022/12/15 09:20:36;;;;;;;27.30;15.05;;;4.80;75.40;;;;;;4973871;28;20093;-16
2022/12/15 09:23:02;;;;;;;25.63;15.30;;;4.90;75.10;;;;;;4973702;28;20035;-17
2022/12/15 09:25:28;;;;;;;29.23;17.73;;;5.00;74.30;;;;;;4973599;28;20104;-17
2022/12/15 09:27:56;;;;;;;28.88;16.88;;;5.10;74.90;;;;;;4973739;28;20109;-17
2022/12/15 09:30:21;;;;;;;26.35;16.30;;;5.20;74.20;;;;;;4973539;28;20039;-16
2022/12/15 09:32:47;;;;;;;28.52;16.67;;;5.30;73.80;;;;;;4973603;28;20081;-16
2022/12/15 09:35:13;;;;;;;27.88;15.38;;;5.40;73.80;;;;;;4973286;28;20074;-15
2022/12/15 09:37:39;;;;;;;26.60;16.65;;;5.40;73.60;;;;;;4973676;28;20181;-18
2022/12/15 09:40:06;;;;;;;29.02;16.67;;;5.50;72.70;;;;;;4973483;28;20139;-17
2022/12/15 09:42:32;;;;;;;27.02;16.60;;;5.50;71.40;;;;;;4974185;28;20027;-14
2022/12/15 09:45:16;;;;;;;29.20;17.00;;;5.60;73.20;;;;;;4976841;28;20119;-14
2022/12/15 09:48:00;;;;;;;27.63;16.60;;;5.70;72.00;;;;;;4977397;28;20033;-13
2022/12/15 09:50:32;;;;;;;29.10;16.67;;;5.80;71.40;;;;;;4977234;28;20030;-15
2022/12/15 09:53:00;;;;;;;32.40;18.03;;;5.90;71.70;;;;;;4976801;28;20027;-16
2022/12/15 09:55:31;;;;;;;26.30;15.70;;;5.90;71.00;;;;;;4977148;28;20387;-17
2022/12/15 09:58:54;;;;;;;29.10;17.15;;;6.00;71.90;;;;;;4976885;28;20424;-14
2022/12/15 10:01:37;;;;;;;24.83;15.55;;;6.10;70.50;;;;;;4974769;28;20505;-17
2022/12/15 10:04:12;;;;;;;28.45;17.52;;;6.10;70.70;;;;;;4974722;28;20406;-13
2022/12/15 10:06:57;;;;;;;28.52;17.38;;;6.20;69.50;;;;;;4974483;28;20129;-13
2022/12/15 10:09:27;;;;;;;32.33;16.35;;;6.20;69.90;;;;;;4974696;28;20019;-15
2022/12/15 10:12:02;;;;;;;28.63;16.83;;;6.30;69.70;;;;;;4974440;28;20470;-16
2022/12/15 10:14:36;;;;;;;32.53;16.95;;;6.40;68.90;;;;;;4974546;28;20027;-17
2022/12/15 10:17:25;;;;;;;32.10;16.75;;;6.50;69.80;;;;;;4974219;28;20041;-17
2022/12/15 10:19:57;;;;;;;29.05;16.52;;;6.50;67.70;;;;;;4974657;28;20117;-13
2022/12/15 10:22:30;;;;;;;25.85;16.02;;;6.60;68.80;;;;;;4974380;28;20022;-15
2022/12/15 10:25:01;;;;;;;27.33;16.23;;;6.60;69.20;;;;;;4974226;28;20194;-12
2022/12/15 10:28:09;;;;;;;26.25;16.52;;;6.70;68.20;;;;;;4974433;28;20129;-16
2022/12/15 10:30:57;;;;;;;27.73;16.73;;;6.70;68.60;;;;;;4974193;28;20161;-16
2022/12/15 10:33:30;;;;;;;28.17;15.38;;;6.70;68.30;;;;;;4976394;28;20046;-17
2022/12/15 10:35:56;;;;;;;27.60;17.83;;;6.70;68.80;;;;;;4976432;28;20391;-16
2022/12/15 10:38:36;;;;;;;31.13;18.10;;;6.80;68.80;;;;;;4976201;28;20023;-16
2022/12/15 10:41:08;;;;;;;30.33;17.67;;;6.90;69.00;;;;;;4976168;28;20097;-12
2022/12/15 10:43:36;;;;;;;31.30;17.63;;;6.90;69.00;;;;;;4976312;28;20109;-17
2022/12/15 10:46:20;;;;;;;29.20;18.25;;;7.00;68.50;;;;;;4975888;28;20116;-16
2022/12/15 10:48:52;;;;;;;34.65;18.83;;;7.00;68.60;;;;;;4976021;28;20026;-17
2022/12/15 10:51:30;;;;;;;29.95;17.02;;;7.00;69.00;;;;;;4975950;28;20027;-13
2022/12/15 10:54:08;;;;;;;27.80;17.15;;;7.00;68.80;;;;;;4975209;28;20123;-17
2022/12/15 10:56:48;;;;;;;26.60;16.45;;;7.00;67.80;;;;;;4976321;28;20035;-16
2022/12/15 10:59:40;;;;;;;32.55;17.58;;;7.00;68.40;;;;;;4974583;28;20081;-16
2022/12/15 11:02:24;;;;;;;29.27;18.48;;;7.00;68.70;;;;;;4975490;28;20031;-16
2022/12/15 11:04:57;;;;;;;31.70;16.97;;;7.00;67.60;;;;;;4975366;28;20466;-16
2022/12/15 11:07:26;;;;;;;31.23;17.67;;;7.00;68.80;;;;;;4975451;28;20503;-17
2022/12/15 11:09:59;;;;;;;29.85;17.08;;;7.00;67.50;;;;;;4975493;28;20618;-16
2022/12/15 11:15:23;;;;;;;25.90;16.55;;;6.90;67.70;;;;;;4975983;28;20046;-16
2022/12/15 11:18:00;;;;;;;26.30;15.88;;;6.90;67.90;;;;;;4975447;28;20038;-17
2022/12/15 11:20:37;;;;;;;36.78;21.13;;;6.90;68.30;;;;;;4975721;28;20031;-17
2022/12/15 11:23:17;;;;;;;46.30;23.40;;;6.90;67.00;;;;;;4974310;28;20029;-16
2022/12/15 11:25:52;;;;;;;33.70;19.05;;;6.90;67.40;;;;;;4975450;28;20027;-18
2022/12/15 11:28:24;;;;;;;33.85;18.52;;;6.90;68.20;;;;;;4975184;28;20027;-17
2022/12/15 11:31:13;;;;;;;26.58;16.55;;;6.90;67.50;;;;;;4975173;28;20026;-14
2022/12/15 11:33:40;;;;;;;22.75;14.35;;;6.90;67.90;;;;;;4975134;28;20027;-17
2022/12/15 11:36:19;;;;;;;23.48;13.70;;;7.00;68.20;;;;;;4975125;28;20114;-16
2022/12/15 11:38:56;;;;;;;19.85;11.90;;;7.00;67.20;;;;;;4975107;28;20097;-16
2022/12/15 11:42:13;;;;;;;22.85;13.50;;;7.00;67.30;;;;;;4973574;28;20479;-15
2022/12/15 11:45:16;;;;;;;23.30;12.50;;;6.90;65.00;;;;;;4972922;28;20023;-14
2022/12/15 11:47:48;;;;;;;21.25;11.95;;;6.90;65.50;;;;;;4956166;28;20419;-17
2022/12/15 11:50:49;;;;;;;18.98;11.85;;;6.90;66.30;;;;;;4972832;28;20405;-19
2022/12/15 11:53:48;;;;;;;21.17;11.05;;;6.90;65.50;;;;;;4972720;28;20143;-17
2022/12/15 11:56:26;;;;;;;22.40;11.70;;;6.90;65.40;;;;;;4972455;28;20039;-17
2022/12/15 11:59:28;;;;;;;20.63;11.52;;;6.90;65.50;;;;;;4972374;28;20030;-17
2022/12/15 12:02:24;;;;;;;19.38;11.38;;;6.90;66.00;;;;;;4972479;28;20054;-18
2022/12/15 12:04:56;;;;;;;19.50;12.23;;;6.90;64.80;;;;;;4972748;28;20030;-18
2022/12/15 12:07:31;;;;;;;23.17;13.07;;;6.80;65.00;;;;;;4971914;28;20051;-17
2022/12/15 12:10:02;;;;;;;25.13;11.98;;;6.80;66.00;;;;;;4972478;28;20084;-16
2022/12/15 12:12:44;;;;;;;21.65;11.55;;;6.80;66.20;;;;;;4972444;28;20031;-16
2022/12/15 12:15:13;;;;;;;23.00;13.13;;;6.80;66.30;;;;;;4973206;28;20459;-17
2022/12/15 12:17:54;;;;;;;29.05;14.93;;;6.80;64.30;;;;;;4974281;28;20042;-17
2022/12/15 12:20:25;;;;;;;27.77;13.75;;;6.80;65.40;;;;;;4974461;28;20113;-17
2022/12/15 12:23:15;;;;;;;21.77;12.38;;;6.70;64.10;;;;;;4974328;28;20121;-17
2022/12/15 12:25:53;;;;;;;21.58;11.02;;;6.70;64.20;;;;;;4974411;28;20037;-18
2022/12/15 12:28:25;;;;;;;22.75;12.50;;;6.70;63.70;;;;;;4974469;28;20146;-17
2022/12/15 12:30:55;;;;;;;23.48;10.70;;;6.60;64.90;;;;;;4974005;28;20037;-17
2022/12/15 12:33:39;;;;;;;17.90;10.65;;;6.60;64.90;;;;;;4974586;28;20026;-16
2022/12/15 12:36:11;;;;;;;17.55;10.65;;;6.40;64.00;;;;;;4974348;28;20022;-18
2022/12/15 12:38:45;;;;;;;18.35;10.90;;;6.30;65.10;;;;;;4974379;28;20038;-18
2022/12/15 12:41:20;;;;;;;15.77;10.23;;;6.40;65.90;;;;;;4974091;28;20113;-17
2022/12/15 12:43:57;;;;;;;18.67;10.30;;;6.40;65.70;;;;;;4974102;28;20037;-17
2022/12/15 12:46:25;;;;;;;16.67;9.70;;;6.40;64.50;;;;;;4974378;28;20053;-17
2022/12/15 12:48:55;;;;;;;21.83;11.10;;;6.40;65.70;;;;;;4974250;28;20513;-17
2022/12/15 12:51:30;;;;;;;20.98;11.25;;;6.30;66.10;;;;;;4973968;28;20050;-15
2022/12/15 12:53:58;;;;;;;20.65;11.98;;;6.20;67.10;;;;;;4974278;28;20023;-15
2022/12/15 12:56:41;;;;;;;18.23;11.68;;;6.20;67.30;;;;;;4974099;28;20090;-16
2022/12/15 12:59:28;;;;;;;20.55;12.20;;;6.10;67.40;;;;;;4972489;28;20069;-18
2022/12/15 13:01:55;;;;;;;26.13;12.90;;;6.10;67.90;;;;;;4973924;28;20514;-15
2022/12/15 13:04:27;;;;;;;21.75;11.63;;;6.00;68.20;;;;;;4972489;28;20038;-18
2022/12/15 13:07:02;;;;;;;25.52;12.38;;;6.00;68.20;;;;;;4973432;28;20050;-15
2022/12/15 13:09:42;;;;;;;23.85;13.02;;;6.00;68.20;;;;;;4974031;28;20034;-17
2022/12/15 13:12:33;;;;;;;25.40;13.10;;;6.00;68.60;;;;;;4974099;28;20054;-17
2022/12/15 13:15:11;;;;;;;26.02;13.80;;;6.00;68.50;;;;;;4973274;28;20066;-17
2022/12/15 13:17:42;;;;;;;25.60;12.63;;;6.00;67.90;;;;;;4974791;28;20093;-16
2022/12/15 13:20:25;;;;;;;20.70;10.73;;;6.10;67.90;;;;;;4977777;28;20411;-17
2022/12/15 13:22:52;;;;;;;18.90;10.45;;;6.10;67.70;;;;;;4977619;28;20038;-17
2022/12/15 13:25:37;;;;;;;21.83;11.52;;;6.10;67.60;;;;;;4977638;28;20057;-17
2022/12/15 13:28:39;;;;;;;20.48;11.00;;;6.10;67.10;;;;;;4977383;28;20182;-18
2022/12/15 13:31:19;;;;;;;18.83;10.98;;;6.10;68.00;;;;;;4975142;28;20074;-15
2022/12/15 13:33:48;;;;;;;20.65;10.40;;;6.10;67.30;;;;;;4975341;28;20594;-15
2022/12/15 13:36:38;;;;;;;18.52;10.10;;;6.10;67.50;;;;;;4975929;28;20038;-17
2022/12/15 13:39:27;;;;;;;18.67;10.05;;;6.10;67.80;;;;;;4974974;28;20348;-16
2022/12/15 13:41:55;;;;;;;20.67;10.10;;;6.10;67.20;;;;;;4974937;28;20039;-15
2022/12/15 13:44:23;;;;;;;18.80;9.93;;;6.00;67.80;;;;;;4975270;28;20053;-16
2022/12/15 13:46:52;;;;;;;20.23;10.10;;;6.00;69.20;;;;;;4974776;28;20039;-17
2022/12/15 13:49:41;;;;;;;19.92;10.57;;;6.00;69.90;;;;;;4974992;28;20045;-15
2022/12/15 13:52:31;;;;;;;18.50;10.13;;;5.90;69.10;;;;;;4947095;28;20078;-15
2022/12/15 13:55:02;;;;;;;18.77;10.02;;;5.90;70.00;;;;;;4975004;28;20111;-15
2022/12/15 13:57:38;;;;;;;17.75;9.30;;;5.90;70.30;;;;;;4975358;28;20030;-14
2022/12/15 14:00:17;;;;;;;16.25;9.45;;;5.90;70.40;;;;;;4974795;28;20046;-14
2022/12/15 14:02:43;;;;;;;15.98;9.45;;;5.80;69.90;;;;;;4975502;28;20027;-16
2022/12/15 14:05:21;;;;;;;13.88;8.27;;;5.80;69.90;;;;;;4974389;28;20557;-15
2022/12/15 14:07:58;;;;;;;15.82;8.88;;;5.90;70.20;;;;;;4975502;28;20063;-17
2022/12/15 14:10:32;;;;;;;17.92;9.70;;;5.90;70.30;;;;;;4976943;28;20074;-17
2022/12/15 14:13:10;;;;;;;17.02;9.13;;;5.90;70.60;;;;;;4976435;28;20549;-17
2022/12/15 14:15:43;;;;;;;17.10;8.93;;;5.90;71.20;;;;;;4976862;28;20439;-17
2022/12/15 14:18:41;;;;;;;19.27;10.85;;;5.90;71.20;;;;;;4976848;28;20487;-17
2022/12/15 14:21:20;;;;;;;16.80;8.75;;;5.90;71.80;;;;;;4974213;28;20038;-16
2022/12/15 14:23:46;;;;;;;17.25;9.57;;;5.90;71.90;;;;;;4974358;28;20041;-16
2022/12/15 14:26:13;;;;;;;18.92;10.38;;;5.90;72.50;;;;;;4974365;28;20401;-15
2022/12/15 14:28:42;;;;;;;15.00;9.00;;;5.90;73.20;;;;;;4973725;28;20034;-14
2022/12/15 14:31:13;;;;;;;19.00;9.38;;;5.80;74.20;;;;;;4974011;28;20073;-15
2022/12/15 14:33:44;;;;;;;15.30;9.55;;;5.70;74.50;;;;;;4974575;28;20146;-13
2022/12/15 14:36:12;;;;;;;16.42;8.55;;;5.60;74.80;;;;;;4974031;28;20078;-13
2022/12/15 14:38:53;;;;;;;15.35;8.48;;;5.50;75.10;;;;;;4973923;28;20018;-15
2022/12/15 14:41:34;;;;;;;18.77;9.25;;;5.40;75.50;;;;;;4974086;28;20038;-15
2022/12/15 14:44:05;;;;;;;15.30;8.40;;;5.30;75.70;;;;;;4974018;28;20035;-16
2022/12/15 14:46:31;;;;;;;12.77;7.47;;;5.20;76.80;;;;;;4957530;28;20046;-14
2022/12/15 14:48:58;;;;;;;14.85;8.48;;;5.20;76.70;;;;;;4973584;28;20029;-15
2022/12/15 14:51:27;;;;;;;19.73;10.35;;;5.20;76.00;;;;;;4973751;28;20104;-17
2022/12/15 14:53:53;;;;;;;20.77;10.05;;;5.10;77.30;;;;;;4973639;28;20386;-17
2022/12/15 14:56:25;;;;;;;24.17;11.70;;;5.10;76.70;;;;;;4974426;28;20038;-17
2022/12/15 14:59:06;;;;;;;29.35;12.88;;;5.00;77.30;;;;;;4975947;28;20056;-15
2022/12/15 15:01:40;;;;;;;23.52;11.52;;;5.00;77.30;;;;;;4976086;28;20031;-15
2022/12/15 15:04:28;;;;;;;21.27;10.82;;;4.90;79.10;;;;;;4976045;28;20034;-15
2022/12/15 15:06:56;;;;;;;15.75;9.93;;;4.90;79.40;;;;;;4975111;28;20089;-16
2022/12/15 15:09:43;;;;;;;15.32;9.05;;;4.90;79.70;;;;;;4975528;28;20031;-16
2022/12/15 15:12:16;;;;;;;20.00;10.48;;;4.80;79.40;;;;;;4975732;28;20041;-15
2022/12/15 15:15:03;;;;;;;17.02;9.38;;;4.80;78.80;;;;;;4975409;28;20019;-15
2022/12/15 15:17:36;;;;;;;20.10;10.13;;;4.80;78.70;;;;;;4975717;28;20023;-15
2022/12/15 15:20:07;;;;;;;20.17;9.87;;;4.80;79.60;;;;;;5045798;23;20051;-15
2022/12/15 15:22:35;;;;;;;17.10;9.88;;;4.80;79.80;;;;;;4956695;28;20119;-17
2022/12/15 15:25:22;;;;;;;17.48;9.63;;;4.60;80.60;;;;;;4956727;29;20031;-13
2022/12/15 15:27:49;;;;;;;18.63;9.20;;;4.60;80.20;;;;;;4955867;29;20081;-17